createdAt,value
2019-03-10T00:00:51.328Z,973.84
2019-03-10T00:01:51.308Z,973.84
2019-03-10T00:02:51.309Z,973.86
2019-03-10T00:03:51.307Z,973.89
2019-03-10T00:04:51.324Z,973.91
2019-03-10T00:05:51.266Z,973.89
2019-03-10T00:06:51.309Z,973.87
2019-03-10T00:07:51.259Z,973.86
2019-03-10T00:08:51.271Z,973.87
2019-03-10T00:09:51.224Z,973.90
2019-03-10T00:10:51.211Z,973.98
2019-03-10T00:11:51.202Z,973.95
2019-03-10T00:12:51.215Z,974.03
2019-03-10T00:13:51.212Z,973.99
2019-03-10T00:14:51.164Z,973.95
2019-03-10T00:15:51.160Z,973.96
2019-03-10T00:16:51.157Z,974.08
2019-03-10T00:17:51.145Z,973.94
2019-03-10T00:18:51.144Z,974.02
2019-03-10T00:19:51.133Z,974.00
2019-03-10T00:20:51.103Z,973.91
2019-03-10T00:21:51.113Z,973.96
2019-03-10T00:22:51.079Z,973.98
2019-03-10T00:23:51.138Z,973.94
2019-03-10T00:24:51.062Z,973.98
2019-03-10T00:25:51.231Z,973.97
2019-03-10T00:26:51.039Z,974.04
2019-03-10T00:27:51.020Z,973.81
2019-03-10T00:28:51.024Z,973.92
2019-03-10T00:29:50.999Z,973.94
2019-03-10T00:30:50.990Z,973.91
2019-03-10T00:31:50.977Z,973.93
2019-03-10T00:32:50.972Z,973.93
2019-03-10T00:33:50.965Z,973.86
2019-03-10T00:34:50.952Z,973.87
2019-03-10T00:35:50.944Z,973.89
2019-03-10T00:36:50.920Z,973.80
2019-03-10T00:37:50.925Z,973.78
2019-03-10T00:38:50.907Z,973.75
2019-03-10T00:39:51.010Z,973.75
2019-03-10T00:40:50.877Z,973.76
2019-03-10T00:41:50.871Z,973.79
2019-03-10T00:42:50.857Z,973.78
2019-03-10T00:43:50.854Z,973.66
2019-03-10T00:44:50.849Z,973.71
2019-03-10T00:45:50.841Z,973.70
2019-03-10T00:46:50.921Z,973.70
2019-03-10T00:47:50.801Z,973.71
2019-03-10T00:48:50.794Z,973.74
2019-03-10T00:49:50.794Z,973.73
2019-03-10T00:50:50.781Z,973.77
2019-03-10T00:51:50.759Z,973.72
2019-03-10T00:52:50.745Z,973.70
2019-03-10T00:53:50.869Z,973.62
2019-03-10T00:54:50.722Z,973.60
2019-03-10T00:55:50.716Z,973.65
2019-03-10T00:56:50.706Z,973.66
2019-03-10T00:57:50.687Z,973.57
2019-03-10T00:58:50.800Z,973.61
2019-03-10T00:59:50.668Z,973.67
2019-03-10T01:00:50.753Z,973.57
2019-03-10T01:01:50.644Z,973.61
2019-03-10T01:02:50.665Z,973.63
2019-03-10T01:03:50.632Z,973.59
2019-03-10T01:04:50.629Z,973.62
2019-03-10T01:05:50.599Z,973.55
2019-03-10T01:06:50.599Z,973.62
2019-03-10T01:07:51.553Z,973.53
2019-03-10T01:08:50.609Z,973.53
2019-03-10T01:09:50.564Z,973.55
2019-03-10T01:10:50.541Z,973.51
2019-03-10T01:11:50.531Z,973.52
2019-03-10T01:12:50.560Z,973.57
2019-03-10T01:13:50.548Z,973.52
2019-03-10T01:14:50.539Z,973.47
2019-03-10T01:15:50.489Z,973.48
2019-03-10T01:16:50.477Z,973.49
2019-03-10T01:17:50.462Z,973.40
2019-03-10T01:18:50.479Z,973.46
2019-03-10T01:19:50.459Z,973.41
2019-03-10T01:20:50.428Z,973.39
2019-03-10T01:21:50.417Z,973.35
2019-03-10T01:22:50.428Z,973.33
2019-03-10T01:23:50.402Z,973.24
2019-03-10T01:24:50.405Z,973.30
2019-03-10T01:25:50.373Z,973.31
2019-03-10T01:26:50.362Z,973.31
2019-03-10T01:27:50.353Z,973.29
2019-03-10T01:28:50.345Z,973.27
2019-03-10T01:29:50.344Z,973.24
2019-03-10T01:30:50.338Z,973.26
2019-03-10T01:31:50.332Z,973.18
2019-03-10T01:32:50.293Z,973.20
2019-03-10T01:33:50.326Z,973.18
2019-03-10T01:34:50.274Z,973.14
2019-03-10T01:35:50.273Z,973.13
2019-03-10T01:36:50.262Z,973.18
2019-03-10T01:37:50.249Z,973.10
2019-03-10T01:38:50.262Z,973.08
2019-03-10T01:39:50.240Z,973.04
2019-03-10T01:40:50.227Z,973.04
2019-03-10T01:41:50.202Z,973.11
2019-03-10T01:42:50.185Z,973.06
2019-03-10T01:43:50.185Z,973.06
2019-03-10T01:44:50.168Z,972.97
2019-03-10T01:45:50.150Z,973.03
2019-03-10T01:46:50.155Z,973.02
2019-03-10T01:47:50.142Z,973.01
2019-03-10T01:48:50.116Z,972.95
2019-03-10T01:49:50.123Z,972.92
2019-03-10T01:50:50.093Z,972.98
2019-03-10T01:51:50.092Z,973.08
2019-03-10T01:52:50.076Z,973.02
2019-03-10T01:53:50.073Z,973.01
2019-03-10T01:54:50.077Z,973.06
2019-03-10T01:55:50.048Z,972.96
2019-03-10T01:56:50.047Z,972.90
2019-03-10T01:57:50.016Z,972.94
2019-03-10T01:58:50.070Z,972.81
2019-03-10T01:59:50.001Z,972.87
2019-03-10T02:00:49.993Z,972.81
2019-03-10T02:01:49.979Z,972.75
2019-03-10T02:02:49.964Z,972.81
2019-03-10T02:03:49.951Z,972.75
2019-03-10T02:04:49.951Z,972.75
2019-03-10T02:05:49.926Z,972.74
2019-03-10T02:06:49.919Z,972.70
2019-03-10T02:07:49.910Z,972.60
2019-03-10T02:08:49.903Z,972.68
2019-03-10T02:09:49.902Z,972.62
2019-03-10T02:10:49.870Z,972.65
2019-03-10T02:11:49.858Z,972.62
2019-03-10T02:12:49.850Z,972.58
2019-03-10T02:13:49.838Z,972.56
2019-03-10T02:14:49.847Z,972.57
2019-03-10T02:15:49.816Z,972.54
2019-03-10T02:16:49.811Z,972.57
2019-03-10T02:17:49.810Z,972.52
2019-03-10T02:18:49.783Z,972.57
2019-03-10T02:19:49.784Z,972.56
2019-03-10T02:20:49.787Z,972.52
2019-03-10T02:21:49.782Z,972.59
2019-03-10T02:22:49.738Z,972.53
2019-03-10T02:23:49.725Z,972.45
2019-03-10T02:24:49.726Z,972.48
2019-03-10T02:25:49.726Z,972.37
2019-03-10T02:26:49.696Z,972.41
2019-03-10T02:27:49.717Z,972.34
2019-03-10T02:28:49.677Z,972.35
2019-03-10T02:29:49.677Z,972.38
2019-03-10T02:30:49.654Z,972.37
2019-03-10T02:31:49.650Z,972.31
2019-03-10T02:32:49.627Z,972.28
2019-03-10T02:33:49.630Z,972.27
2019-03-10T02:34:49.621Z,972.33
2019-03-10T02:35:49.600Z,972.39
2019-03-10T02:36:49.598Z,972.32
2019-03-10T02:37:49.573Z,972.34
2019-03-10T02:38:49.651Z,972.30
2019-03-10T02:39:49.563Z,972.26
2019-03-10T02:40:49.543Z,972.29
2019-03-10T02:41:49.531Z,972.30
2019-03-10T02:42:49.535Z,972.23
2019-03-10T02:43:49.587Z,972.19
2019-03-10T02:44:49.495Z,972.16
2019-03-10T02:45:49.494Z,972.17
2019-03-10T02:46:49.478Z,972.14
2019-03-10T02:47:49.466Z,972.10
2019-03-10T02:48:49.452Z,972.15
2019-03-10T02:49:49.445Z,972.16
2019-03-10T02:50:49.558Z,972.14
2019-03-10T02:51:49.420Z,972.11
2019-03-10T02:52:49.407Z,972.05
2019-03-10T02:53:49.419Z,972.04
2019-03-10T02:54:49.394Z,972.08
2019-03-10T02:55:49.382Z,972.07
2019-03-10T02:56:49.374Z,972.03
2019-03-10T02:57:57.017Z,972.10
2019-03-10T02:58:49.369Z,972.12
2019-03-10T02:59:49.338Z,972.13
2019-03-10T03:00:49.324Z,972.16
2019-03-10T03:01:49.309Z,972.19
2019-03-10T03:02:49.292Z,972.13
2019-03-10T03:03:49.289Z,972.16
2019-03-10T03:04:49.297Z,972.14
2019-03-10T03:05:49.281Z,972.08
2019-03-10T03:06:49.251Z,972.12
2019-03-10T03:07:49.239Z,972.12
2019-03-10T03:08:49.237Z,972.15
2019-03-10T03:09:49.232Z,972.17
2019-03-10T03:10:49.222Z,972.11
2019-03-10T03:11:49.199Z,972.09
2019-03-10T03:12:49.199Z,972.10
2019-03-10T03:13:49.177Z,972.08
2019-03-10T03:14:49.191Z,972.06
2019-03-10T03:15:49.159Z,972.01
2019-03-10T03:16:49.146Z,972.05
2019-03-10T03:17:49.171Z,972.02
2019-03-10T03:18:49.124Z,972.08
2019-03-10T03:19:49.124Z,972.01
2019-03-10T03:20:49.103Z,972.00
2019-03-10T03:21:49.095Z,972.02
2019-03-10T03:22:49.077Z,972.05
2019-03-10T03:23:49.095Z,972.00
2019-03-10T03:24:49.101Z,972.00
2019-03-10T03:25:49.044Z,972.05
2019-03-10T03:26:49.051Z,972.04
2019-03-10T03:27:49.042Z,972.08
2019-03-10T03:28:49.032Z,972.05
2019-03-10T03:29:49.027Z,972.07
2019-03-10T03:30:49.035Z,971.95
2019-03-10T03:31:49.037Z,972.04
2019-03-10T03:32:49.008Z,972.00
2019-03-10T03:33:49.030Z,971.94
2019-03-10T03:34:48.943Z,971.97
2019-03-10T03:35:48.938Z,971.87
2019-03-10T03:36:48.927Z,971.89
2019-03-10T03:37:48.908Z,971.85
2019-03-10T03:38:48.923Z,971.83
2019-03-10T03:39:48.883Z,971.88
2019-03-10T03:40:49.102Z,971.88
2019-03-10T03:41:48.886Z,971.83
2019-03-10T03:42:48.849Z,971.82
2019-03-10T03:43:48.890Z,971.71
2019-03-10T03:44:48.839Z,971.71
2019-03-10T03:45:48.831Z,971.70
2019-03-10T03:46:48.823Z,971.64
2019-03-10T03:47:48.791Z,971.62
2019-03-10T03:48:48.796Z,971.59
2019-03-10T03:49:48.777Z,971.56
2019-03-10T03:50:48.785Z,971.55
2019-03-10T03:51:48.771Z,971.51
2019-03-10T03:52:48.771Z,971.51
2019-03-10T03:53:48.750Z,971.44
2019-03-10T03:54:48.732Z,971.43
2019-03-10T03:55:48.772Z,971.38
2019-03-10T03:56:48.709Z,971.32
2019-03-10T03:57:48.715Z,971.30
2019-03-10T03:58:48.674Z,971.31
2019-03-10T03:59:48.705Z,971.32
2019-03-10T04:00:48.661Z,971.25
2019-03-10T04:01:48.665Z,971.27
2019-03-10T04:02:48.739Z,971.21
2019-03-10T04:03:48.620Z,971.13
2019-03-10T04:04:48.605Z,971.16
2019-03-10T04:05:48.599Z,971.20
2019-03-10T04:06:48.601Z,971.08
2019-03-10T04:07:48.649Z,971.05
2019-03-10T04:08:48.562Z,971.14
2019-03-10T04:09:48.550Z,971.16
2019-03-10T04:10:48.559Z,971.12
2019-03-10T04:11:48.556Z,971.17
2019-03-10T04:12:48.581Z,971.09
2019-03-10T04:13:48.508Z,971.07
2019-03-10T04:14:48.501Z,971.07
2019-03-10T04:15:48.491Z,971.07
2019-03-10T04:16:48.483Z,971.12
2019-03-10T04:17:48.470Z,971.18
2019-03-10T04:18:48.459Z,971.07
2019-03-10T04:19:48.471Z,971.02
2019-03-10T04:20:48.429Z,971.11
2019-03-10T04:21:48.435Z,971.08
2019-03-10T04:22:48.476Z,971.00
2019-03-10T04:23:48.398Z,970.97
2019-03-10T04:24:48.382Z,970.99
2019-03-10T04:25:48.386Z,971.04
2019-03-10T04:26:48.423Z,970.99
2019-03-10T04:27:48.380Z,971.02
2019-03-10T04:28:48.349Z,971.08
2019-03-10T04:29:48.375Z,971.06
2019-03-10T04:30:48.321Z,971.13
2019-03-10T04:31:48.318Z,971.14
2019-03-10T04:32:48.350Z,971.12
2019-03-10T04:33:48.290Z,971.08
2019-03-10T04:34:48.271Z,971.15
2019-03-10T04:35:48.260Z,971.20
2019-03-10T04:36:48.510Z,971.26
2019-03-10T04:37:48.248Z,971.09
2019-03-10T04:38:48.230Z,971.12
2019-03-10T04:39:48.220Z,971.12
2019-03-10T04:40:48.223Z,971.07
2019-03-10T04:41:48.205Z,971.08
2019-03-10T04:42:48.249Z,971.02
2019-03-10T04:43:48.185Z,970.98
2019-03-10T04:44:48.167Z,970.96
2019-03-10T04:45:48.148Z,970.96
2019-03-10T04:46:48.173Z,970.90
2019-03-10T04:47:48.135Z,970.93
2019-03-10T04:48:48.119Z,970.87
2019-03-10T04:49:48.113Z,970.88
2019-03-10T04:50:48.101Z,970.81
2019-03-10T04:51:48.100Z,970.77
2019-03-10T04:52:48.186Z,970.80
2019-03-10T04:53:48.063Z,970.80
2019-03-10T04:54:48.055Z,970.78
2019-03-10T04:55:48.045Z,970.82
2019-03-10T04:56:48.048Z,970.73
2019-03-10T04:57:48.039Z,970.74
2019-03-10T04:58:48.027Z,970.71
2019-03-10T04:59:47.999Z,970.70
2019-03-10T05:00:48.006Z,970.70
2019-03-10T05:01:47.977Z,970.67
2019-03-10T05:02:48.022Z,970.67
2019-03-10T05:03:47.958Z,970.58
2019-03-10T05:04:47.964Z,970.55
2019-03-10T05:05:47.929Z,970.52
2019-03-10T05:06:47.925Z,970.45
2019-03-10T05:07:47.965Z,970.45
2019-03-10T05:08:47.899Z,970.41
2019-03-10T05:09:47.888Z,970.40
2019-03-10T05:10:47.885Z,970.41
2019-03-10T05:11:47.895Z,970.41
2019-03-10T05:12:47.861Z,970.37
2019-03-10T05:13:47.847Z,970.39
2019-03-10T05:14:47.887Z,970.40
2019-03-10T05:15:47.829Z,970.39
2019-03-10T05:16:47.812Z,970.43
2019-03-10T05:17:47.817Z,970.32
2019-03-10T05:18:47.799Z,970.33
2019-03-10T05:19:47.794Z,970.37
2019-03-10T05:20:47.774Z,970.35
2019-03-10T05:21:47.761Z,970.29
2019-03-10T05:22:47.777Z,970.29
2019-03-10T05:23:47.732Z,970.27
2019-03-10T05:24:47.715Z,970.28
2019-03-10T05:25:47.752Z,970.26
2019-03-10T05:26:47.702Z,970.25
2019-03-10T05:27:47.739Z,970.17
2019-03-10T05:28:47.688Z,970.14
2019-03-10T05:29:47.678Z,970.01
2019-03-10T05:30:47.729Z,970.01
2019-03-10T05:31:47.712Z,969.97
2019-03-10T05:32:47.630Z,969.93
2019-03-10T05:33:47.628Z,969.89
2019-03-10T05:34:47.604Z,969.98
2019-03-10T05:35:47.602Z,969.90
2019-03-10T05:36:47.601Z,969.84
2019-03-10T05:37:47.598Z,969.84
2019-03-10T05:38:47.561Z,969.85
2019-03-10T05:39:47.549Z,969.84
2019-03-10T05:40:47.540Z,969.77
2019-03-10T05:41:47.573Z,969.77
2019-03-10T05:42:47.566Z,969.81
2019-03-10T05:43:47.503Z,969.80
2019-03-10T05:44:47.509Z,969.69
2019-03-10T05:45:47.484Z,969.68
2019-03-10T05:46:47.472Z,969.59
2019-03-10T05:47:47.466Z,969.55
2019-03-10T05:48:47.453Z,969.48
2019-03-10T05:49:47.479Z,969.50
2019-03-10T05:50:47.431Z,969.55
2019-03-10T05:51:47.427Z,969.53
2019-03-10T05:52:47.476Z,969.51
2019-03-10T05:53:47.396Z,969.50
2019-03-10T05:54:47.389Z,969.54
2019-03-10T05:55:47.376Z,969.48
2019-03-10T05:56:47.360Z,969.48
2019-03-10T05:57:47.394Z,969.35
2019-03-10T05:58:47.383Z,969.40
2019-03-10T05:59:47.339Z,969.40
2019-03-10T06:00:47.327Z,969.33
2019-03-10T06:01:47.305Z,969.27
2019-03-10T06:02:47.303Z,969.31
2019-03-10T06:03:47.288Z,969.24
2019-03-10T06:04:47.272Z,969.27
2019-03-10T06:05:47.286Z,969.21
2019-03-10T06:06:47.260Z,969.27
2019-03-10T06:07:47.253Z,969.25
2019-03-10T06:08:47.244Z,969.28
2019-03-10T06:09:47.233Z,969.23
2019-03-10T06:10:47.245Z,969.24
2019-03-10T06:11:47.192Z,969.27
2019-03-10T06:12:47.225Z,969.22
2019-03-10T06:13:47.174Z,969.26
2019-03-10T06:14:47.164Z,969.23
2019-03-10T06:15:47.317Z,969.30
2019-03-10T06:16:47.168Z,969.32
2019-03-10T06:17:47.235Z,969.30
2019-03-10T06:18:47.122Z,969.20
2019-03-10T06:19:47.181Z,969.32
2019-03-10T06:20:47.108Z,969.31
2019-03-10T06:21:47.081Z,969.25
2019-03-10T06:22:47.118Z,969.29
2019-03-10T06:23:47.063Z,969.25
2019-03-10T06:24:47.058Z,969.31
2019-03-10T06:25:47.044Z,969.19
2019-03-10T06:26:47.027Z,969.29
2019-03-10T06:27:47.036Z,969.29
2019-03-10T06:28:47.012Z,969.21
2019-03-10T06:29:47.006Z,969.21
2019-03-10T06:30:46.987Z,969.18
2019-03-10T06:31:46.984Z,969.36
2019-03-10T06:32:47.046Z,969.22
2019-03-10T06:33:46.978Z,969.16
2019-03-10T06:34:46.945Z,969.22
2019-03-10T06:35:46.931Z,969.19
2019-03-10T06:36:46.950Z,969.18
2019-03-10T06:37:47.021Z,969.16
2019-03-10T06:38:46.895Z,969.17
2019-03-10T06:39:47.016Z,969.05
2019-03-10T06:40:46.872Z,969.22
2019-03-10T06:41:46.874Z,969.09
2019-03-10T06:42:46.911Z,969.01
2019-03-10T06:43:46.840Z,969.07
2019-03-10T06:44:46.833Z,968.92
2019-03-10T06:45:46.820Z,968.97
2019-03-10T06:46:46.821Z,968.96
2019-03-10T06:47:46.890Z,968.99
2019-03-10T06:48:46.788Z,968.91
2019-03-10T06:49:46.794Z,968.88
2019-03-10T06:50:46.787Z,968.92
2019-03-10T06:51:46.830Z,968.90
2019-03-10T06:52:46.956Z,968.90
2019-03-10T06:53:46.736Z,968.86
2019-03-10T06:54:46.734Z,968.79
2019-03-10T06:55:46.720Z,968.82
2019-03-10T06:56:46.718Z,968.81
2019-03-10T06:57:46.705Z,968.79
2019-03-10T06:58:46.736Z,968.81
2019-03-10T06:59:46.693Z,968.81
2019-03-10T07:00:46.670Z,968.70
2019-03-10T07:01:46.678Z,968.74
2019-03-10T07:02:46.655Z,968.75
2019-03-10T07:03:46.629Z,968.72
2019-03-10T07:04:46.630Z,968.70
2019-03-10T07:05:46.725Z,968.75
2019-03-10T07:06:46.630Z,968.68
2019-03-10T07:07:46.643Z,968.64
2019-03-10T07:08:46.601Z,968.62
2019-03-10T07:09:46.630Z,968.63
2019-03-10T07:10:46.557Z,968.61
2019-03-10T07:11:46.547Z,968.56
2019-03-10T07:12:46.675Z,968.60
2019-03-10T07:13:46.524Z,968.57
2019-03-10T07:14:46.523Z,968.56
2019-03-10T07:15:46.506Z,968.55
2019-03-10T07:16:46.493Z,968.45
2019-03-10T07:17:46.545Z,968.42
2019-03-10T07:18:46.477Z,968.45
2019-03-10T07:19:46.613Z,968.40
2019-03-10T07:20:46.460Z,968.36
2019-03-10T07:21:46.557Z,968.39
2019-03-10T07:22:46.440Z,968.35
2019-03-10T07:23:46.423Z,968.36
2019-03-10T07:24:46.555Z,968.32
2019-03-10T07:25:46.408Z,968.28
2019-03-10T07:26:46.492Z,968.26
2019-03-10T07:27:46.373Z,968.27
2019-03-10T07:28:46.376Z,968.19
2019-03-10T07:29:46.354Z,968.29
2019-03-10T07:30:46.345Z,968.23
2019-03-10T07:31:46.381Z,968.22
2019-03-10T07:32:46.343Z,968.24
2019-03-10T07:33:46.318Z,968.30
2019-03-10T07:34:46.316Z,968.30
2019-03-10T07:35:46.286Z,968.34
2019-03-10T07:36:46.312Z,968.37
2019-03-10T07:37:46.320Z,968.21
2019-03-10T07:38:46.259Z,968.25
2019-03-10T07:39:46.248Z,968.21
2019-03-10T07:40:46.248Z,968.16
2019-03-10T07:41:46.234Z,968.18
2019-03-10T07:42:46.284Z,968.17
2019-03-10T07:43:46.209Z,968.09
2019-03-10T07:44:46.231Z,968.13
2019-03-10T07:45:46.188Z,968.02
2019-03-10T07:46:46.193Z,968.04
2019-03-10T07:47:46.268Z,968.06
2019-03-10T07:48:46.184Z,967.99
2019-03-10T07:49:46.157Z,968.01
2019-03-10T07:50:46.131Z,967.97
2019-03-10T07:51:46.143Z,967.94
2019-03-10T07:52:46.127Z,967.93
2019-03-10T07:53:46.134Z,967.95
2019-03-10T07:54:46.120Z,967.91
2019-03-10T07:55:46.122Z,967.93
2019-03-10T07:56:46.072Z,967.91
2019-03-10T07:57:46.111Z,967.95
2019-03-10T07:58:46.045Z,967.92
2019-03-10T07:59:46.040Z,967.91
2019-03-10T08:00:46.038Z,967.82
2019-03-10T08:01:46.030Z,967.83
2019-03-10T08:02:46.180Z,968.02
2019-03-10T08:03:45.985Z,968.01
2019-03-10T08:04:46.001Z,968.04
2019-03-10T08:05:45.996Z,968.00
2019-03-10T08:06:45.960Z,967.98
2019-03-10T08:07:46.028Z,967.82
2019-03-10T08:08:45.965Z,967.72
2019-03-10T08:09:45.994Z,967.79
2019-03-10T08:10:45.930Z,967.84
2019-03-10T08:11:45.901Z,967.90
2019-03-10T08:12:45.942Z,967.84
2019-03-10T08:13:45.945Z,968.02
2019-03-10T08:14:45.872Z,967.98
2019-03-10T08:15:45.866Z,967.86
2019-03-10T08:16:45.939Z,967.67
2019-03-10T08:17:45.915Z,967.61
2019-03-10T08:18:45.835Z,967.61
2019-03-10T08:19:45.839Z,967.67
2019-03-10T08:20:45.806Z,967.77
2019-03-10T08:21:46.080Z,967.83
2019-03-10T08:22:45.823Z,967.78
2019-03-10T08:23:45.978Z,967.84
2019-03-10T08:24:45.769Z,967.62
2019-03-10T08:25:45.772Z,967.46
2019-03-10T08:26:45.755Z,967.43
2019-03-10T08:27:45.827Z,967.26
2019-03-10T08:28:45.722Z,967.21
2019-03-10T08:29:45.751Z,967.19
2019-03-10T08:30:45.731Z,967.10
2019-03-10T08:31:45.695Z,966.97
2019-03-10T08:32:45.692Z,966.90
2019-03-10T08:33:45.673Z,966.93
2019-03-10T08:34:45.689Z,966.96
2019-03-10T08:35:45.666Z,967.09
2019-03-10T08:36:45.634Z,966.96
2019-03-10T08:37:45.838Z,966.98
2019-03-10T08:38:45.614Z,966.95
2019-03-10T08:39:45.612Z,966.93
2019-03-10T08:40:45.606Z,966.88
2019-03-10T08:41:45.625Z,966.90
2019-03-10T08:42:45.611Z,966.70
2019-03-10T08:43:45.573Z,966.70
2019-03-10T08:44:45.563Z,966.74
2019-03-10T08:45:45.598Z,966.78
2019-03-10T08:46:45.529Z,966.83
2019-03-10T08:47:45.729Z,966.83
2019-03-10T08:48:45.511Z,966.84
2019-03-10T08:49:45.716Z,966.83
2019-03-10T08:50:45.499Z,966.78
2019-03-10T08:51:45.487Z,966.84
2019-03-10T08:52:45.524Z,966.70
2019-03-10T08:53:45.462Z,966.75
2019-03-10T08:54:45.473Z,966.76
2019-03-10T08:55:45.432Z,966.72
2019-03-10T08:56:45.427Z,966.75
2019-03-10T08:57:46.046Z,966.79
2019-03-10T08:58:45.428Z,966.81
2019-03-10T08:59:45.399Z,966.74
2019-03-10T09:00:45.391Z,966.65
2019-03-10T09:01:45.399Z,966.62
2019-03-10T09:02:45.499Z,966.62
2019-03-10T09:03:45.354Z,966.78
2019-03-10T09:04:45.338Z,966.73
2019-03-10T09:05:45.362Z,966.86
2019-03-10T09:06:45.343Z,966.82
2019-03-10T09:07:45.492Z,966.83
2019-03-10T09:08:45.307Z,966.74
2019-03-10T09:09:45.997Z,966.82
2019-03-10T09:10:45.472Z,966.83
2019-03-10T09:11:45.427Z,966.82
2019-03-10T09:12:45.275Z,966.75
2019-03-10T09:13:45.243Z,966.76
2019-03-10T09:14:45.270Z,966.76
2019-03-10T09:15:45.237Z,966.76
2019-03-10T09:16:45.209Z,966.77
2019-03-10T09:17:45.438Z,966.70
2019-03-10T09:18:45.202Z,966.62
2019-03-10T09:19:45.173Z,966.71
2019-03-10T09:20:45.428Z,966.75
2019-03-10T09:21:45.153Z,966.67
2019-03-10T09:22:45.203Z,966.67
2019-03-10T09:23:45.131Z,966.61
2019-03-10T09:24:45.119Z,966.68
2019-03-10T09:25:45.118Z,966.56
2019-03-10T09:26:45.098Z,966.47
2019-03-10T09:27:45.843Z,966.52
2019-03-10T09:28:45.078Z,966.46
2019-03-10T09:29:45.253Z,966.44
2019-03-10T09:30:45.092Z,966.45
2019-03-10T09:31:45.079Z,966.44
2019-03-10T09:32:45.146Z,966.44
2019-03-10T09:33:45.037Z,966.45
2019-03-10T09:34:45.027Z,966.39
2019-03-10T09:35:45.032Z,966.43
2019-03-10T09:36:44.988Z,966.37
2019-03-10T09:37:45.041Z,966.45
2019-03-10T09:38:44.967Z,966.40
2019-03-10T09:39:44.990Z,966.41
2019-03-10T09:40:45.207Z,966.44
2019-03-10T09:41:44.941Z,966.44
2019-03-10T09:42:44.963Z,966.37
2019-03-10T09:43:44.914Z,966.30
2019-03-10T09:44:44.906Z,966.22
2019-03-10T09:45:44.906Z,966.18
2019-03-10T09:46:44.881Z,966.17
2019-03-10T09:47:44.968Z,966.16
2019-03-10T09:48:44.937Z,966.16
2019-03-10T09:49:44.854Z,966.19
2019-03-10T09:50:44.937Z,966.12
2019-03-10T09:51:44.900Z,966.03
2019-03-10T09:52:44.843Z,966.03
2019-03-10T09:53:44.836Z,965.98
2019-03-10T09:54:44.847Z,966.04
2019-03-10T09:55:44.786Z,966.03
2019-03-10T09:56:44.783Z,966.03
2019-03-10T09:57:44.940Z,966.00
2019-03-10T09:58:44.812Z,966.03
2019-03-10T09:59:44.759Z,965.99
2019-03-10T10:00:44.778Z,965.99
2019-03-10T10:01:44.742Z,966.00
2019-03-10T10:02:44.878Z,966.00
2019-03-10T10:03:44.707Z,965.99
2019-03-10T10:04:44.703Z,966.05
2019-03-10T10:05:44.682Z,965.98
2019-03-10T10:06:44.678Z,965.99
2019-03-10T10:07:44.806Z,965.98
2019-03-10T10:08:45.416Z,965.97
2019-03-10T10:09:44.667Z,966.01
2019-03-10T10:10:44.626Z,965.90
2019-03-10T10:11:44.616Z,965.88
2019-03-10T10:12:44.740Z,965.94
2019-03-10T10:13:44.596Z,965.82
2019-03-10T10:14:44.582Z,965.85
2019-03-10T10:15:44.572Z,965.83
2019-03-10T10:16:44.566Z,965.88
2019-03-10T10:17:44.571Z,965.78
2019-03-10T10:18:44.547Z,965.73
2019-03-10T10:19:44.537Z,965.79
2019-03-10T10:20:44.531Z,965.70
2019-03-10T10:21:44.535Z,965.69
2019-03-10T10:22:44.670Z,965.69
2019-03-10T10:23:44.483Z,965.73
2019-03-10T10:24:44.481Z,965.59
2019-03-10T10:25:44.597Z,965.55
2019-03-10T10:26:44.495Z,965.68
2019-03-10T10:27:44.540Z,965.59
2019-03-10T10:28:44.429Z,965.60
2019-03-10T10:29:44.431Z,965.55
2019-03-10T10:30:44.416Z,965.48
2019-03-10T10:31:44.410Z,965.48
2019-03-10T10:32:44.884Z,965.43
2019-03-10T10:33:44.387Z,965.41
2019-03-10T10:34:44.397Z,965.38
2019-03-10T10:35:44.353Z,965.23
2019-03-10T10:36:44.376Z,965.32
2019-03-10T10:37:44.427Z,965.34
2019-03-10T10:38:44.337Z,965.27
2019-03-10T10:39:44.309Z,965.23
2019-03-10T10:40:44.301Z,965.35
2019-03-10T10:41:44.474Z,965.34
2019-03-10T10:42:44.301Z,965.28
2019-03-10T10:43:44.503Z,965.18
2019-03-10T10:44:44.252Z,965.24
2019-03-10T10:45:44.257Z,965.26
2019-03-10T10:46:44.238Z,965.25
2019-03-10T10:47:44.397Z,965.24
2019-03-10T10:48:44.208Z,965.18
2019-03-10T10:49:44.205Z,965.07
2019-03-10T10:50:44.215Z,965.09
2019-03-10T10:51:44.190Z,965.08
2019-03-10T10:52:44.258Z,965.07
2019-03-10T10:53:44.169Z,965.06
2019-03-10T10:54:44.148Z,965.04
2019-03-10T10:55:44.151Z,965.04
2019-03-10T10:56:44.133Z,965.08
2019-03-10T10:57:44.129Z,964.92
2019-03-10T10:58:44.150Z,965.03
2019-03-10T10:59:44.126Z,964.83
2019-03-10T11:00:44.089Z,964.92
2019-03-10T11:01:44.133Z,964.80
2019-03-10T11:02:44.172Z,964.82
2019-03-10T11:03:44.086Z,964.84
2019-03-10T11:04:44.051Z,964.80
2019-03-10T11:05:44.070Z,964.78
2019-03-10T11:06:44.013Z,964.79
2019-03-10T11:07:44.013Z,964.75
2019-03-10T11:08:43.999Z,964.80
2019-03-10T11:09:44.009Z,964.63
2019-03-10T11:10:43.969Z,965.06
2019-03-10T11:11:43.997Z,964.80
2019-03-10T11:12:44.237Z,964.69
2019-03-10T11:13:43.942Z,964.71
2019-03-10T11:14:43.940Z,964.66
2019-03-10T11:15:43.966Z,964.60
2019-03-10T11:16:45.515Z,964.68
2019-03-10T11:17:44.100Z,964.50
2019-03-10T11:18:43.882Z,964.57
2019-03-10T11:19:43.942Z,964.64
2019-03-10T11:20:43.881Z,964.50
2019-03-10T11:21:43.857Z,964.56
2019-03-10T11:22:44.110Z,964.55
2019-03-10T11:23:43.829Z,964.52
2019-03-10T11:24:43.817Z,964.53
2019-03-10T11:25:43.810Z,964.52
2019-03-10T11:26:43.799Z,964.41
2019-03-10T11:27:43.973Z,964.45
2019-03-10T11:28:43.775Z,964.36
2019-03-10T11:29:43.766Z,964.35
2019-03-10T11:30:43.760Z,964.39
2019-03-10T11:31:43.751Z,964.32
2019-03-10T11:32:43.788Z,964.33
2019-03-10T11:33:43.771Z,964.24
2019-03-10T11:34:43.714Z,964.16
2019-03-10T11:35:43.703Z,963.96
2019-03-10T11:36:43.691Z,964.01
2019-03-10T11:37:43.793Z,964.09
2019-03-10T11:38:43.677Z,964.13
2019-03-10T11:39:43.657Z,964.14
2019-03-10T11:40:43.658Z,964.00
2019-03-10T11:41:43.647Z,964.07
2019-03-10T11:42:43.784Z,964.10
2019-03-10T11:43:43.625Z,964.05
2019-03-10T11:44:43.605Z,964.17
2019-03-10T11:45:43.606Z,964.12
2019-03-10T11:46:43.580Z,964.05
2019-03-10T11:47:43.765Z,964.09
2019-03-10T11:48:43.581Z,964.03
2019-03-10T11:49:43.557Z,964.13
2019-03-10T11:50:43.552Z,964.02
2019-03-10T11:51:43.563Z,964.08
2019-03-10T11:52:43.537Z,963.84
2019-03-10T11:53:43.534Z,963.84
2019-03-10T11:54:43.491Z,963.92
2019-03-10T11:55:43.490Z,963.85
2019-03-10T11:56:43.558Z,963.92
2019-03-10T11:57:43.487Z,963.74
2019-03-10T11:58:43.463Z,963.68
2019-03-10T11:59:43.455Z,963.81
2019-03-10T12:00:43.431Z,963.72
2019-03-10T12:01:43.416Z,963.72
2019-03-10T12:02:43.410Z,963.62
2019-03-10T12:03:43.407Z,963.65
2019-03-10T12:04:43.404Z,963.59
2019-03-10T12:05:43.372Z,963.67
2019-03-10T12:06:43.378Z,963.47
2019-03-10T12:07:43.371Z,963.56
2019-03-10T12:08:43.364Z,963.57
2019-03-10T12:09:43.333Z,963.60
2019-03-10T12:10:43.317Z,963.29
2019-03-10T12:11:43.329Z,963.83
2019-03-10T12:12:43.341Z,963.40
2019-03-10T12:13:43.334Z,963.26
2019-03-10T12:14:43.278Z,963.34
2019-03-10T12:15:43.298Z,963.21
2019-03-10T12:16:43.277Z,963.17
2019-03-10T12:17:43.248Z,963.13
2019-03-10T12:18:43.259Z,963.02
2019-03-10T12:19:43.247Z,962.99
2019-03-10T12:20:43.250Z,962.85
2019-03-10T12:21:43.198Z,962.93
2019-03-10T12:22:43.199Z,962.97
2019-03-10T12:23:43.191Z,962.99
2019-03-10T12:24:43.191Z,963.15
2019-03-10T12:25:43.152Z,963.09
2019-03-10T12:26:43.143Z,962.87
2019-03-10T12:27:43.204Z,962.88
2019-03-10T12:28:43.128Z,962.89